sensor_id;sensor_type;location;lat;lon;timestamp;pressure;altitude;pressure_sealevel;temperature;humidity
45323;BME280;31382;50.200;8.674;2023-02-17T00:03:53;101040.16;;;10.03;66.93
45323;BME280;31382;50.200;8.674;2023-02-17T00:08:54;101039.78;;;9.98;67.30
45323;BME280;31382;50.200;8.674;2023-02-17T00:13:56;101031.59;;;9.99;67.17
45323;BME280;31382;50.200;8.674;2023-02-17T00:18:59;101025.00;;;9.93;67.60
45323;BME280;31382;50.200;8.674;2023-02-17T00:24:01;101017.91;;;9.92;67.68
45323;BME280;31382;50.200;8.674;2023-02-17T00:29:03;101007.19;;;9.92;67.94
45323;BME280;31382;50.200;8.674;2023-02-17T00:34:04;101012.53;;;9.92;67.90
45323;BME280;31382;50.200;8.674;2023-02-17T00:39:06;101019.44;;;9.95;67.73
45323;BME280;31382;50.200;8.674;2023-02-17T00:44:14;101030.72;;;9.99;67.71
45323;BME280;31382;50.200;8.674;2023-02-17T00:49:20;101034.47;;;10.06;67.57
45323;BME280;31382;50.200;8.674;2023-02-17T00:54:22;101029.47;;;10.11;67.61
45323;BME280;31382;50.200;8.674;2023-02-17T00:59:24;101044.75;;;10.10;67.33
45323;BME280;31382;50.200;8.674;2023-02-17T01:04:25;101040.31;;;10.19;67.25
45323;BME280;31382;50.200;8.674;2023-02-17T01:09:26;101048.88;;;10.23;67.05
45323;BME280;31382;50.200;8.674;2023-02-17T01:14:28;101049.81;;;10.31;66.76
45323;BME280;31382;50.200;8.674;2023-02-17T01:19:29;101042.91;;;10.29;66.50
45323;BME280;31382;50.200;8.674;2023-02-17T01:24:31;101045.88;;;10.26;66.68
45323;BME280;31382;50.200;8.674;2023-02-17T01:29:32;101034.44;;;10.24;66.72
45323;BME280;31382;50.200;8.674;2023-02-17T01:34:33;101032.59;;;10.24;66.63
45323;BME280;31382;50.200;8.674;2023-02-17T01:39:35;101025.06;;;10.28;66.25
45323;BME280;31382;50.200;8.674;2023-02-17T01:50:17;101006.75;;;10.23;66.25
45323;BME280;31382;50.200;8.674;2023-02-17T01:55:22;100992.97;;;10.26;66.28
45323;BME280;31382;50.200;8.674;2023-02-17T02:00:26;100974.56;;;10.31;66.01
45323;BME280;31382;50.200;8.674;2023-02-17T02:05:29;100978.09;;;10.32;65.84
45323;BME280;31382;50.200;8.674;2023-02-17T02:10:30;100974.09;;;10.36;65.87
45323;BME280;31382;50.200;8.674;2023-02-17T02:15:45;100960.13;;;10.32;65.93
45323;BME280;31382;50.200;8.674;2023-02-17T02:26:20;100943.00;;;10.34;65.71
45323;BME280;31382;50.200;8.674;2023-02-17T02:31:51;100927.03;;;10.32;65.82
45323;BME280;31382;50.200;8.674;2023-02-17T02:37:01;100927.56;;;10.36;65.91
45323;BME280;31382;50.200;8.674;2023-02-17T02:42:12;100935.47;;;10.37;65.93
45323;BME280;31382;50.200;8.674;2023-02-17T03:03:38;100904.75;;;10.40;66.11
45323;BME280;31382;50.200;8.674;2023-02-17T03:08:49;100898.56;;;10.47;65.92
45323;BME280;31382;50.200;8.674;2023-02-17T03:13:51;100893.88;;;10.49;66.03
45323;BME280;31382;50.200;8.674;2023-02-17T03:18:53;100908.91;;;10.34;66.60
45323;BME280;31382;50.200;8.674;2023-02-17T03:23:54;100895.63;;;10.32;66.69
45323;BME280;31382;50.200;8.674;2023-02-17T03:28:55;100905.75;;;10.39;66.60
45323;BME280;31382;50.200;8.674;2023-02-17T03:33:57;100902.38;;;10.37;66.90
45323;BME280;31382;50.200;8.674;2023-02-17T03:38:59;100900.72;;;10.44;66.71
45323;BME280;31382;50.200;8.674;2023-02-17T03:44:01;100892.50;;;10.45;66.76
45323;BME280;31382;50.200;8.674;2023-02-17T03:49:02;100885.63;;;10.43;67.52
45323;BME280;31382;50.200;8.674;2023-02-17T03:54:04;100888.34;;;10.51;67.52
45323;BME280;31382;50.200;8.674;2023-02-17T03:59:05;100883.00;;;10.59;67.57
45323;BME280;31382;50.200;8.674;2023-02-17T04:04:07;100888.03;;;10.62;67.74
45323;BME280;31382;50.200;8.674;2023-02-17T04:09:08;100891.94;;;10.76;67.56
45323;BME280;31382;50.200;8.674;2023-02-17T04:14:10;100900.03;;;10.84;67.70
45323;BME280;31382;50.200;8.674;2023-02-17T04:19:17;100888.78;;;10.97;67.08
45323;BME280;31382;50.200;8.674;2023-02-17T04:24:21;100899.03;;;11.02;67.17
45323;BME280;31382;50.200;8.674;2023-02-17T04:29:23;100906.81;;;11.05;67.50
45323;BME280;31382;50.200;8.674;2023-02-17T04:34:24;100894.19;;;10.97;67.82
45323;BME280;31382;50.200;8.674;2023-02-17T04:39:25;100897.75;;;11.06;67.44
45323;BME280;31382;50.200;8.674;2023-02-17T04:44:27;100900.59;;;11.13;67.52
45323;BME280;31382;50.200;8.674;2023-02-17T04:49:28;100897.41;;;11.17;67.55
45323;BME280;31382;50.200;8.674;2023-02-17T04:54:30;100902.63;;;11.27;67.01
45323;BME280;31382;50.200;8.674;2023-02-17T04:59:31;100892.03;;;11.25;67.26
45323;BME280;31382;50.200;8.674;2023-02-17T05:04:32;100896.25;;;11.28;67.62
45323;BME280;31382;50.200;8.674;2023-02-17T05:09:34;100896.41;;;11.26;67.79
45323;BME280;31382;50.200;8.674;2023-02-17T05:14:36;100884.81;;;11.18;67.87
45323;BME280;31382;50.200;8.674;2023-02-17T05:19:37;100889.00;;;11.20;67.96
45323;BME280;31382;50.200;8.674;2023-02-17T05:24:39;100882.59;;;11.13;68.49
45323;BME280;31382;50.200;8.674;2023-02-17T05:29:40;100897.41;;;11.17;68.63
45323;BME280;31382;50.200;8.674;2023-02-17T05:34:42;100896.72;;;11.23;68.96
45323;BME280;31382;50.200;8.674;2023-02-17T05:39:43;100907.53;;;11.31;68.95
45323;BME280;31382;50.200;8.674;2023-02-17T05:44:44;100916.44;;;11.32;69.10
45323;BME280;31382;50.200;8.674;2023-02-17T05:49:46;100912.91;;;11.31;69.58
45323;BME280;31382;50.200;8.674;2023-02-17T05:54:47;100919.63;;;11.36;69.62
45323;BME280;31382;50.200;8.674;2023-02-17T05:59:48;100915.91;;;11.37;69.56
45323;BME280;31382;50.200;8.674;2023-02-17T06:04:50;100901.31;;;11.47;69.34
45323;BME280;31382;50.200;8.674;2023-02-17T06:09:51;100893.72;;;11.43;69.49
45323;BME280;31382;50.200;8.674;2023-02-17T06:14:53;100887.34;;;11.44;69.65
45323;BME280;31382;50.200;8.674;2023-02-17T06:19:54;100889.34;;;11.50;69.42
45323;BME280;31382;50.200;8.674;2023-02-17T06:24:55;100886.66;;;11.58;69.57
45323;BME280;31382;50.200;8.674;2023-02-17T06:29:57;100883.28;;;11.56;69.44
45323;BME280;31382;50.200;8.674;2023-02-17T06:34:58;100892.84;;;11.67;69.68
45323;BME280;31382;50.200;8.674;2023-02-17T06:39:59;100897.91;;;11.70;69.80
45323;BME280;31382;50.200;8.674;2023-02-17T06:45:01;100893.34;;;11.70;70.11
45323;BME280;31382;50.200;8.674;2023-02-17T06:50:06;100907.16;;;11.84;69.57
45323;BME280;31382;50.200;8.674;2023-02-17T06:55:08;100916.44;;;11.89;69.43
45323;BME280;31382;50.200;8.674;2023-02-17T07:00:10;100910.03;;;11.90;69.84
45323;BME280;31382;50.200;8.674;2023-02-17T07:05:11;100908.19;;;11.99;69.51
45323;BME280;31382;50.200;8.674;2023-02-17T07:10:14;100920.13;;;12.05;69.87
45323;BME280;31382;50.200;8.674;2023-02-17T07:15:15;100910.50;;;12.02;69.72
45323;BME280;31382;50.200;8.674;2023-02-17T07:20:17;100923.31;;;12.00;70.32
45323;BME280;31382;50.200;8.674;2023-02-17T07:25:18;100924.00;;;12.10;70.17
45323;BME280;31382;50.200;8.674;2023-02-17T07:30:20;100917.38;;;12.21;70.09
45323;BME280;31382;50.200;8.674;2023-02-17T07:35:21;100915.03;;;12.26;70.00
45323;BME280;31382;50.200;8.674;2023-02-17T07:40:23;100917.88;;;12.25;70.12
45323;BME280;31382;50.200;8.674;2023-02-17T07:45:25;100916.38;;;12.22;70.39
45323;BME280;31382;50.200;8.674;2023-02-17T07:50:26;100905.78;;;12.21;70.57
45323;BME280;31382;50.200;8.674;2023-02-17T07:55:28;100905.94;;;12.19;70.30
45323;BME280;31382;50.200;8.674;2023-02-17T08:00:29;100913.84;;;12.21;70.77
45323;BME280;31382;50.200;8.674;2023-02-17T08:05:31;100902.72;;;12.24;70.49
45323;BME280;31382;50.200;8.674;2023-02-17T08:10:32;100899.72;;;12.19;71.18
45323;BME280;31382;50.200;8.674;2023-02-17T08:15:52;100900.50;;;12.27;70.67
45323;BME280;31382;50.200;8.674;2023-02-17T08:20:53;100908.28;;;12.30;71.28
45323;BME280;31382;50.200;8.674;2023-02-17T08:25:58;100895.44;;;12.41;70.52
45323;BME280;31382;50.200;8.674;2023-02-17T08:30:59;100895.72;;;12.46;70.88
45323;BME280;31382;50.200;8.674;2023-02-17T08:36:05;100888.13;;;12.49;71.00
45323;BME280;31382;50.200;8.674;2023-02-17T08:41:15;100895.88;;;12.53;70.82
45323;BME280;31382;50.200;8.674;2023-02-17T08:46:17;100887.91;;;12.59;70.55
45323;BME280;31382;50.200;8.674;2023-02-17T08:51:21;100890.44;;;12.61;70.50
45323;BME280;31382;50.200;8.674;2023-02-17T08:56:26;100877.44;;;12.64;70.53
45323;BME280;31382;50.200;8.674;2023-02-17T09:01:29;100899.81;;;12.73;70.66
45323;BME280;31382;50.200;8.674;2023-02-17T09:06:36;100895.22;;;12.82;70.30
45323;BME280;31382;50.200;8.674;2023-02-17T09:11:38;100892.53;;;12.82;70.33
45323;BME280;31382;50.200;8.674;2023-02-17T09:16:39;100897.94;;;12.74;71.09
45323;BME280;31382;50.200;8.674;2023-02-17T09:21:42;100900.91;;;12.64;71.58
45323;BME280;31382;50.200;8.674;2023-02-17T09:26:43;100900.91;;;12.64;71.38
45323;BME280;31382;50.200;8.674;2023-02-17T09:31:44;100889.56;;;12.68;71.77
45323;BME280;31382;50.200;8.674;2023-02-17T09:36:46;100894.38;;;12.81;71.58
45323;BME280;31382;50.200;8.674;2023-02-17T09:41:50;100883.72;;;12.88;71.45
45323;BME280;31382;50.200;8.674;2023-02-17T09:46:55;100904.88;;;12.99;71.64
45323;BME280;31382;50.200;8.674;2023-02-17T09:52:51;100895.97;;;13.22;70.87
45323;BME280;31382;50.200;8.674;2023-02-17T09:58:00;100906.66;;;13.15;71.44
45323;BME280;31382;50.200;8.674;2023-02-17T10:03:29;100908.63;;;13.29;70.81
45323;BME280;31382;50.200;8.674;2023-02-17T10:09:03;100918.88;;;13.34;70.93
45323;BME280;31382;50.200;8.674;2023-02-17T10:14:21;100927.56;;;13.44;70.68
45323;BME280;31382;50.200;8.674;2023-02-17T10:19:34;100924.69;;;13.46;70.62
45323;BME280;31382;50.200;8.674;2023-02-17T10:24:36;100914.03;;;13.53;70.86
45323;BME280;31382;50.200;8.674;2023-02-17T10:35:15;100917.16;;;13.79;69.95
45323;BME280;31382;50.200;8.674;2023-02-17T10:40:27;100904.22;;;13.89;69.79
45323;BME280;31382;50.200;8.674;2023-02-17T10:45:33;100921.81;;;13.85;69.86
45323;BME280;31382;50.200;8.674;2023-02-17T10:50:36;100903.50;;;14.11;69.40
45323;BME280;31382;50.200;8.674;2023-02-17T10:55:46;100897.72;;;14.28;69.18
45323;BME280;31382;50.200;8.674;2023-02-17T11:00:53;100896.22;;;14.41;68.85
45323;BME280;31382;50.200;8.674;2023-02-17T11:05:58;100900.41;;;14.43;68.51
45323;BME280;31382;50.200;8.674;2023-02-17T11:11:22;100880.84;;;14.56;68.20
45323;BME280;31382;50.200;8.674;2023-02-17T11:16:27;100884.25;;;14.80;67.78
45323;BME280;31382;50.200;8.674;2023-02-17T11:21:29;100878.44;;;14.83;67.72
45323;BME280;31382;50.200;8.674;2023-02-17T11:26:33;100878.69;;;15.03;67.33
45323;BME280;31382;50.200;8.674;2023-02-17T11:31:36;100869.47;;;15.19;66.96
45323;BME280;31382;50.200;8.674;2023-02-17T11:36:38;100855.59;;;15.29;66.49
45323;BME280;31382;50.200;8.674;2023-02-17T11:41:39;100863.91;;;15.49;66.07
45323;BME280;31382;50.200;8.674;2023-02-17T11:52:18;100857.47;;;15.78;65.34
45323;BME280;31382;50.200;8.674;2023-02-17T12:08:29;100824.38;;;15.89;64.49
45323;BME280;31382;50.200;8.674;2023-02-17T12:30:36;100802.84;;;16.16;63.65
45323;BME280;31382;50.200;8.674;2023-02-17T12:35:52;100796.16;;;16.12;63.81
45323;BME280;31382;50.200;8.674;2023-02-17T12:41:05;100789.84;;;16.04;63.60
45323;BME280;31382;50.200;8.674;2023-02-17T12:46:12;100776.72;;;16.08;63.34
45323;BME280;31382;50.200;8.674;2023-02-17T12:51:20;100783.75;;;15.96;63.51
45323;BME280;31382;50.200;8.674;2023-02-17T13:01:33;100793.97;;;15.94;63.59
45323;BME280;31382;50.200;8.674;2023-02-17T13:06:39;100787.28;;;15.90;63.39
45323;BME280;31382;50.200;8.674;2023-02-17T13:11:43;100789.75;;;15.91;63.44
45323;BME280;31382;50.200;8.674;2023-02-17T13:16:45;100793.97;;;15.94;63.63
45323;BME280;31382;50.200;8.674;2023-02-17T13:21:53;100796.19;;;15.83;63.40
45323;BME280;31382;50.200;8.674;2023-02-17T13:26:54;100809.84;;;15.69;63.99
45323;BME280;31382;50.200;8.674;2023-02-17T13:31:58;100788.69;;;15.57;64.04
45323;BME280;31382;50.200;8.674;2023-02-17T13:37:25;100781.63;;;15.56;63.99
45323;BME280;31382;50.200;8.674;2023-02-17T13:42:40;100769.63;;;15.44;64.35
45323;BME280;31382;50.200;8.674;2023-02-17T13:47:42;100772.78;;;15.47;64.58
45323;BME280;31382;50.200;8.674;2023-02-17T13:52:43;100774.47;;;15.49;64.51
45323;BME280;31382;50.200;8.674;2023-02-17T13:57:51;100775.16;;;15.57;64.62
45323;BME280;31382;50.200;8.674;2023-02-17T14:02:55;100776.44;;;15.61;64.51
45323;BME280;31382;50.200;8.674;2023-02-17T14:08:12;100777.06;;;15.63;64.34
45323;BME280;31382;50.200;8.674;2023-02-17T14:13:14;100766.41;;;15.62;64.66
45323;BME280;31382;50.200;8.674;2023-02-17T14:18:27;100759.25;;;15.76;64.34
45323;BME280;31382;50.200;8.674;2023-02-17T14:23:57;100734.28;;;15.87;64.06
45323;BME280;31382;50.200;8.674;2023-02-17T14:29:02;100744.69;;;15.83;64.30
45323;BME280;31382;50.200;8.674;2023-02-17T14:34:04;100753.53;;;15.99;63.92
45323;BME280;31382;50.200;8.674;2023-02-17T14:39:10;100744.13;;;15.95;63.94
45323;BME280;31382;50.200;8.674;2023-02-17T14:44:13;100745.13;;;15.87;64.15
45323;BME280;31382;50.200;8.674;2023-02-17T14:49:14;100737.22;;;15.92;63.88
45323;BME280;31382;50.200;8.674;2023-02-17T14:54:17;100746.16;;;15.86;64.07
45323;BME280;31382;50.200;8.674;2023-02-17T14:59:18;100758.22;;;15.83;64.17
45323;BME280;31382;50.200;8.674;2023-02-17T15:04:20;100771.78;;;15.83;64.04
45323;BME280;31382;50.200;8.674;2023-02-17T15:09:27;100778.47;;;15.81;63.97
45323;BME280;31382;50.200;8.674;2023-02-17T15:14:29;100770.94;;;15.76;63.92
45323;BME280;31382;50.200;8.674;2023-02-17T15:19:30;100782.53;;;15.70;64.06
45323;BME280;31382;50.200;8.674;2023-02-17T15:24:33;100783.38;;;15.71;64.21
45323;BME280;31382;50.200;8.674;2023-02-17T15:29:35;100763.34;;;15.72;64.33
45323;BME280;31382;50.200;8.674;2023-02-17T15:34:36;100768.34;;;15.68;64.38
45323;BME280;31382;50.200;8.674;2023-02-17T15:39:38;100777.31;;;15.69;64.11
45323;BME280;31382;50.200;8.674;2023-02-17T15:44:48;100757.72;;;15.66;64.29
45323;BME280;31382;50.200;8.674;2023-02-17T15:49:50;100759.78;;;15.64;64.10
45323;BME280;31382;50.200;8.674;2023-02-17T15:54:52;100772.88;;;15.61;64.51
45323;BME280;31382;50.200;8.674;2023-02-17T15:59:54;100788.16;;;15.69;64.21
45323;BME280;31382;50.200;8.674;2023-02-17T16:04:55;100806.31;;;15.68;64.12
45323;BME280;31382;50.200;8.674;2023-02-17T16:09:57;100793.38;;;15.70;64.06
45323;BME280;31382;50.200;8.674;2023-02-17T16:14:58;100790.69;;;15.70;64.16
45323;BME280;31382;50.200;8.674;2023-02-17T16:20:00;100798.44;;;15.73;64.02
45323;BME280;31382;50.200;8.674;2023-02-17T16:25:01;100802.72;;;15.67;64.19
45323;BME280;31382;50.200;8.674;2023-02-17T16:30:20;100806.06;;;15.70;63.84
45323;BME280;31382;50.200;8.674;2023-02-17T16:35:24;100811.28;;;15.64;64.31
45323;BME280;31382;50.200;8.674;2023-02-17T16:40:28;100799.19;;;15.67;64.22
45323;BME280;31382;50.200;8.674;2023-02-17T16:45:31;100816.63;;;15.58;64.57
45323;BME280;31382;50.200;8.674;2023-02-17T16:50:33;100805.59;;;15.59;64.28
45323;BME280;31382;50.200;8.674;2023-02-17T16:55:35;100812.63;;;15.54;64.42
45323;BME280;31382;50.200;8.674;2023-02-17T17:00:37;100809.91;;;15.47;64.49
45323;BME280;31382;50.200;8.674;2023-02-17T17:05:38;100816.09;;;15.41;64.67
45323;BME280;31382;50.200;8.674;2023-02-17T17:10:44;100815.00;;;15.35;64.86
45323;BME280;31382;50.200;8.674;2023-02-17T17:15:46;100804.13;;;15.29;64.99
45323;BME280;31382;50.200;8.674;2023-02-17T17:20:47;100802.84;;;15.24;65.10
45323;BME280;31382;50.200;8.674;2023-02-17T17:25:49;100815.16;;;15.27;64.96
45323;BME280;31382;50.200;8.674;2023-02-17T17:30:50;100814.69;;;15.23;65.04
45323;BME280;31382;50.200;8.674;2023-02-17T17:35:52;100824.31;;;15.26;65.07
45323;BME280;31382;50.200;8.674;2023-02-17T17:40:53;100826.81;;;15.27;64.83
45323;BME280;31382;50.200;8.674;2023-02-17T17:45:57;100829.94;;;15.24;65.05
45323;BME280;31382;50.200;8.674;2023-02-17T17:50:58;100840.09;;;15.22;64.99
45323;BME280;31382;50.200;8.674;2023-02-17T17:55:59;100862.66;;;15.30;64.66
45323;BME280;31382;50.200;8.674;2023-02-17T18:01:01;100877.63;;;15.25;64.76
45323;BME280;31382;50.200;8.674;2023-02-17T18:06:04;100892.59;;;15.21;64.98
45323;BME280;31382;50.200;8.674;2023-02-17T18:11:07;100901.38;;;15.23;64.96
45323;BME280;31382;50.200;8.674;2023-02-17T18:16:08;100915.28;;;15.20;64.93
45323;BME280;31382;50.200;8.674;2023-02-17T18:21:10;100921.34;;;15.01;65.81
45323;BME280;31382;50.200;8.674;2023-02-17T18:26:12;100944.63;;;14.80;66.58
45323;BME280;31382;50.200;8.674;2023-02-17T18:31:14;100943.53;;;14.60;67.50
45323;BME280;31382;50.200;8.674;2023-02-17T18:36:19;100944.81;;;14.34;68.48
45323;BME280;31382;50.200;8.674;2023-02-17T18:41:24;100959.81;;;14.22;68.89
45323;BME280;31382;50.200;8.674;2023-02-17T18:46:27;100975.66;;;14.10;69.35
45323;BME280;31382;50.200;8.674;2023-02-17T18:51:29;100978.41;;;14.02;69.90
45323;BME280;31382;50.200;8.674;2023-02-17T18:56:31;100983.38;;;13.98;70.04
45323;BME280;31382;50.200;8.674;2023-02-17T19:01:35;100995.28;;;13.89;70.69
45323;BME280;31382;50.200;8.674;2023-02-17T19:06:38;100991.91;;;13.87;70.64
45323;BME280;31382;50.200;8.674;2023-02-17T19:11:40;100999.63;;;13.90;70.50
45323;BME280;31382;50.200;8.674;2023-02-17T19:16:41;101005.72;;;13.92;70.58
45323;BME280;31382;50.200;8.674;2023-02-17T19:21:42;101006.44;;;13.86;71.07
45323;BME280;31382;50.200;8.674;2023-02-17T19:26:44;101008.19;;;13.79;71.43
45323;BME280;31382;50.200;8.674;2023-02-17T19:31:46;101018.19;;;13.70;71.94
45323;BME280;31382;50.200;8.674;2023-02-17T19:36:48;101017.06;;;13.64;72.07
45323;BME280;31382;50.200;8.674;2023-02-17T19:41:49;101013.41;;;13.57;72.48
45323;BME280;31382;50.200;8.674;2023-02-17T19:46:51;101027.97;;;13.48;72.92
45323;BME280;31382;50.200;8.674;2023-02-17T19:51:54;101031.06;;;13.45;73.29
45323;BME280;31382;50.200;8.674;2023-02-17T19:56:56;101027.88;;;13.41;73.58
45323;BME280;31382;50.200;8.674;2023-02-17T20:01:57;101025.88;;;13.35;74.01
45323;BME280;31382;50.200;8.674;2023-02-17T20:06:58;101041.22;;;13.35;74.22
45323;BME280;31382;50.200;8.674;2023-02-17T20:12:00;101055.25;;;13.30;74.72
45323;BME280;31382;50.200;8.674;2023-02-17T20:17:01;101041.59;;;13.23;74.97
45323;BME280;31382;50.200;8.674;2023-02-17T20:22:03;101052.91;;;13.19;75.60
45323;BME280;31382;50.200;8.674;2023-02-17T20:27:05;101061.88;;;13.11;76.23
45323;BME280;31382;50.200;8.674;2023-02-17T20:32:06;101056.84;;;13.08;76.02
45323;BME280;31382;50.200;8.674;2023-02-17T20:37:09;101048.13;;;12.98;76.67
45323;BME280;31382;50.200;8.674;2023-02-17T20:42:10;101055.03;;;13.00;76.82
45323;BME280;31382;50.200;8.674;2023-02-17T20:47:11;101047.59;;;13.02;76.92
45323;BME280;31382;50.200;8.674;2023-02-17T20:52:13;101056.31;;;13.13;76.51
45323;BME280;31382;50.200;8.674;2023-02-17T20:57:14;101052.94;;;13.10;76.53
45323;BME280;31382;50.200;8.674;2023-02-17T21:02:16;101049.09;;;13.13;76.76
45323;BME280;31382;50.200;8.674;2023-02-17T21:07:17;101063.19;;;13.23;76.68
45323;BME280;31382;50.200;8.674;2023-02-17T21:12:18;101063.91;;;13.17;76.55
45323;BME280;31382;50.200;8.674;2023-02-17T21:17:20;101074.03;;;13.15;77.17
45323;BME280;31382;50.200;8.674;2023-02-17T21:22:21;101077.59;;;13.07;77.72
45323;BME280;31382;50.200;8.674;2023-02-17T21:27:22;101080.28;;;13.16;77.27
45323;BME280;31382;50.200;8.674;2023-02-17T21:32:24;101071.84;;;13.10;77.54
45323;BME280;31382;50.200;8.674;2023-02-17T21:37:26;101074.38;;;13.12;77.65
45323;BME280;31382;50.200;8.674;2023-02-17T21:42:27;101074.53;;;13.10;77.81
45323;BME280;31382;50.200;8.674;2023-02-17T21:47:47;101066.63;;;13.09;77.69
45323;BME280;31382;50.200;8.674;2023-02-17T21:52:49;101064.63;;;13.03;78.45
45323;BME280;31382;50.200;8.674;2023-02-17T21:57:50;101066.66;;;13.01;78.82
45323;BME280;31382;50.200;8.674;2023-02-17T22:02:52;101062.94;;;13.02;78.67
45323;BME280;31382;50.200;8.674;2023-02-17T22:07:53;101061.09;;;13.02;79.07
45323;BME280;31382;50.200;8.674;2023-02-17T22:12:54;101060.25;;;13.02;78.85
45323;BME280;31382;50.200;8.674;2023-02-17T22:17:56;101062.59;;;13.05;78.62
45323;BME280;31382;50.200;8.674;2023-02-17T22:22:57;101058.34;;;13.10;78.86
45323;BME280;31382;50.200;8.674;2023-02-17T22:27:58;101065.63;;;13.10;78.60
45323;BME280;31382;50.200;8.674;2023-02-17T22:33:00;101063.91;;;13.09;78.33
45323;BME280;31382;50.200;8.674;2023-02-17T22:38:02;101059.00;;;13.13;78.05
45323;BME280;31382;50.200;8.674;2023-02-17T22:43:03;101060.53;;;13.15;77.91
45323;BME280;31382;50.200;8.674;2023-02-17T22:48:05;101057.19;;;13.13;77.66
45323;BME280;31382;50.200;8.674;2023-02-17T22:53:06;101054.47;;;13.13;77.87
45323;BME280;31382;50.200;8.674;2023-02-17T22:58:08;101059.16;;;13.19;77.12
45323;BME280;31382;50.200;8.674;2023-02-17T23:03:09;101064.53;;;13.27;77.16
45323;BME280;31382;50.200;8.674;2023-02-17T23:08:11;101062.34;;;13.31;76.60
45323;BME280;31382;50.200;8.674;2023-02-17T23:13:13;101054.06;;;13.33;76.72
45323;BME280;31382;50.200;8.674;2023-02-17T23:18:17;101073.63;;;13.35;75.97
45323;BME280;31382;50.200;8.674;2023-02-17T23:23:19;101076.81;;;13.38;75.87
45323;BME280;31382;50.200;8.674;2023-02-17T23:28:23;101078.13;;;13.42;75.60
45323;BME280;31382;50.200;8.674;2023-02-17T23:33:24;101065.97;;;13.46;75.14
45323;BME280;31382;50.200;8.674;2023-02-17T23:38:26;101067.28;;;13.51;75.23
45323;BME280;31382;50.200;8.674;2023-02-17T23:43:27;101057.34;;;13.51;75.13
45323;BME280;31382;50.200;8.674;2023-02-17T23:48:29;101047.22;;;13.53;74.81
45323;BME280;31382;50.200;8.674;2023-02-17T23:53:30;101055.59;;;13.58;74.68
45323;BME280;31382;50.200;8.674;2023-02-17T23:58:33;101060.66;;;13.61;74.22
